createdAt,value
2023-03-23T15:57:51.875Z,99365.06
2023-03-23T16:00:23.170Z,99364.69
2023-03-23T16:02:55.018Z,99373.03
2023-03-23T16:05:24.083Z,99378.00
2023-03-23T16:07:56.601Z,99380.09
2023-03-23T16:10:26.851Z,99377.59
2023-03-23T16:12:56.024Z,99382.56
2023-03-23T16:15:25.295Z,99392.59
2023-03-23T16:17:54.223Z,99393.06
2023-03-23T16:20:25.054Z,99395.91
2023-03-23T16:22:56.332Z,99400.56
2023-03-23T16:25:25.870Z,99404.53
2023-03-23T16:27:54.784Z,99401.94
2023-03-23T16:30:25.384Z,99397.78
2023-03-23T16:32:57.454Z,99396.53
2023-03-23T16:35:26.950Z,99408.94
2023-03-23T16:38:08.323Z,99400.19
2023-03-23T16:40:38.116Z,99403.66
2023-03-23T16:43:08.246Z,99406.94
2023-03-23T16:45:38.342Z,99412.72
2023-03-23T16:48:08.133Z,99401.78
2023-03-23T16:50:38.224Z,99411.63
2023-03-23T16:53:09.796Z,99406.75
2023-03-23T16:55:39.249Z,99408.81
2023-03-23T16:58:16.994Z,99413.31
2023-03-23T17:00:48.673Z,99413.69
2023-03-23T17:03:18.434Z,99410.81
2023-03-23T17:05:49.978Z,99422.59
2023-03-23T17:08:21.765Z,99422.66
2023-03-23T17:10:50.915Z,99418.66
2023-03-23T17:13:19.908Z,99425.84
2023-03-23T17:15:49.100Z,99419.28
2023-03-23T17:18:18.261Z,99421.09
2023-03-23T17:20:47.364Z,99419.88
2023-03-23T17:23:17.408Z,99422.97
2023-03-23T17:25:48.577Z,99430.75
2023-03-23T17:28:19.593Z,99425.81
2023-03-23T17:30:50.613Z,99430.97
2023-03-23T17:33:19.640Z,99426.66
2023-03-23T17:35:51.923Z,99423.19
2023-03-23T17:38:21.415Z,99429.09
2023-03-23T17:40:57.880Z,99426.59
2023-03-23T17:43:27.158Z,99435.06
2023-03-23T17:45:57.066Z,99440.22
2023-03-23T17:48:27.031Z,99451.34
2023-03-23T17:50:57.815Z,99457.03
2023-03-23T17:53:27.558Z,99464.50
2023-03-23T17:55:58.183Z,99470.06
2023-03-23T17:58:27.503Z,99471.53
2023-03-23T18:00:57.184Z,99482.06
2023-03-23T18:03:27.003Z,99480.47
2023-03-23T18:05:59.960Z,99479.34
2023-03-23T18:08:29.052Z,99480.56
2023-03-23T18:11:00.012Z,99478.94
2023-03-23T18:13:30.172Z,99486.38
2023-03-23T18:15:59.487Z,99485.50
2023-03-23T18:18:28.518Z,99479.78
2023-03-23T18:20:57.561Z,99471.31
2023-03-23T18:23:26.600Z,99475.78
2023-03-23T18:25:55.286Z,99466.09
2023-03-23T18:28:25.609Z,99467.56
2023-03-23T18:30:54.208Z,99473.78
2023-03-23T18:33:25.208Z,99475.53
2023-03-23T18:35:58.678Z,99476.06
2023-03-23T18:38:27.938Z,99475.03
2023-03-23T18:40:56.936Z,99471.34
2023-03-23T18:43:27.455Z,99482.47
2023-03-23T18:45:57.662Z,99478.13
2023-03-23T18:48:26.708Z,99474.44
2023-03-23T18:50:57.899Z,99482.59
2023-03-23T18:53:27.626Z,99479.91
2023-03-23T18:56:05.378Z,99476.03
2023-03-23T18:58:35.771Z,99473.75
2023-03-23T19:01:04.850Z,99466.16
2023-03-23T19:03:33.817Z,99463.28
2023-03-23T19:06:04.554Z,99466.75
2023-03-23T19:08:34.952Z,99464.84
2023-03-23T19:11:04.038Z,99468.41
2023-03-23T19:13:34.147Z,99468.25
2023-03-23T19:16:04.185Z,99472.69
2023-03-23T19:18:33.067Z,99476.94
2023-03-23T19:23:33.815Z,99483.84
2023-03-23T19:26:02.837Z,99478.63
2023-03-23T19:29:18.709Z,99484.44
2023-03-23T19:31:25.151Z,99481.22
2023-03-23T19:33:54.464Z,99473.19
2023-03-23T19:36:24.270Z,99481.91
2023-03-23T19:38:54.507Z,99479.56
2023-03-23T19:41:25.727Z,99480.78
2023-03-23T19:43:55.774Z,99481.44
2023-03-23T19:46:29.063Z,99475.19
2023-03-23T19:48:59.432Z,99471.59
2023-03-23T19:51:28.659Z,99473.53
2023-03-23T19:53:58.342Z,99464.72
2023-03-23T19:56:28.974Z,99459.44
2023-03-23T19:58:58.017Z,99457.81
2023-03-23T20:01:29.235Z,99450.41
2023-03-23T20:04:00.088Z,99441.75
2023-03-23T20:06:29.790Z,99449.81
2023-03-23T20:09:00.069Z,99450.88
2023-03-23T20:11:30.200Z,99462.28
2023-03-23T20:13:59.491Z,99465.13
2023-03-23T20:16:29.610Z,99472.94
2023-03-23T20:19:00.045Z,99465.00
2023-03-23T20:21:29.662Z,99472.13
2023-03-23T20:23:59.733Z,99475.78
2023-03-23T20:26:30.834Z,99466.56
2023-03-23T20:28:59.795Z,99465.50
2023-03-23T20:31:34.288Z,99471.50
2023-03-23T20:34:07.539Z,99469.22
2023-03-23T20:36:40.471Z,99460.59
2023-03-23T20:39:11.396Z,99452.81
2023-03-23T20:41:40.620Z,99451.59
2023-03-23T20:44:15.839Z,99454.00
2023-03-23T20:46:46.607Z,99451.78
2023-03-23T20:49:16.145Z,99455.06
2023-03-23T20:51:46.656Z,99457.97
2023-03-23T20:54:16.783Z,99444.56
2023-03-23T20:56:46.292Z,99448.69
2023-03-23T20:59:15.604Z,99453.13
2023-03-23T21:01:46.608Z,99452.03
2023-03-23T21:04:20.581Z,99454.31
2023-03-23T21:06:52.110Z,99459.06
2023-03-23T21:09:21.587Z,99454.94
2023-03-23T21:11:50.993Z,99458.84
2023-03-23T21:14:20.013Z,99462.34
2023-03-23T21:16:49.970Z,99459.44
2023-03-23T21:19:19.634Z,99460.28
2023-03-23T21:21:56.207Z,99459.03
2023-03-23T21:24:28.285Z,99468.16
2023-03-23T21:26:58.917Z,99465.84
2023-03-23T21:29:28.021Z,99457.44
2023-03-23T21:32:07.693Z,99461.53
2023-03-23T21:34:38.063Z,99455.72
2023-03-23T21:37:06.908Z,99457.97
2023-03-23T21:39:36.066Z,99468.22
2023-03-23T21:42:06.991Z,99465.59
2023-03-23T21:44:36.293Z,99461.25
2023-03-23T21:47:06.683Z,99468.91
2023-03-23T21:49:35.851Z,99466.41
2023-03-23T21:52:09.740Z,99464.31
2023-03-23T21:54:41.379Z,99462.72
2023-03-23T21:57:10.315Z,99481.00
2023-03-23T21:59:41.320Z,99485.50
2023-03-23T22:02:13.944Z,99475.03
2023-03-23T22:04:42.893Z,99480.09
2023-03-23T22:07:12.702Z,99473.44
2023-03-23T22:09:45.258Z,99490.78
2023-03-23T22:12:14.363Z,99491.03
2023-03-23T22:14:43.286Z,99491.50
2023-03-23T22:17:13.648Z,99488.72
2023-03-23T22:19:42.374Z,99491.47
2023-03-23T22:22:11.175Z,99488.16
2023-03-23T22:24:40.005Z,99480.78
2023-03-23T22:27:08.773Z,99490.84
2023-03-23T22:29:37.564Z,99490.22
2023-03-23T22:32:06.420Z,99497.41
2023-03-23T22:34:36.374Z,99489.56
2023-03-23T22:37:05.680Z,99494.75
2023-03-23T22:39:35.303Z,99503.38
2023-03-23T22:42:04.042Z,99493.31
2023-03-23T22:44:33.016Z,99488.97
2023-03-23T22:47:01.811Z,99490.59
2023-03-23T22:49:30.306Z,99496.34
2023-03-23T22:52:00.543Z,99502.94
2023-03-23T22:54:29.199Z,99489.84
2023-03-23T22:56:58.991Z,99493.28
2023-03-23T22:59:27.938Z,99494.75
2023-03-23T23:01:57.483Z,99502.38
2023-03-23T23:04:26.360Z,99497.69
2023-03-23T23:07:06.454Z,99501.38
2023-03-23T23:09:42.843Z,99493.69
2023-03-23T23:12:12.600Z,99498.66
2023-03-23T23:14:45.582Z,99502.19
2023-03-23T23:17:14.456Z,99494.06
2023-03-23T23:19:43.472Z,99496.84
2023-03-23T23:22:18.924Z,99504.38
2023-03-23T23:24:49.745Z,99504.84
2023-03-23T23:27:18.804Z,99500.78
2023-03-23T23:29:47.772Z,99505.88
2023-03-23T23:32:16.677Z,99505.44
2023-03-23T23:34:45.139Z,99513.34
2023-03-23T23:37:14.053Z,99519.41
2023-03-23T23:39:42.966Z,99517.78
2023-03-23T23:42:13.250Z,99522.16
2023-03-23T23:44:43.301Z,99523.66
2023-03-23T23:47:14.904Z,99511.63
2023-03-23T23:49:43.394Z,99516.19
2023-03-23T23:52:12.184Z,99514.78
2023-03-23T23:54:42.714Z,99514.28
2023-03-23T23:57:13.351Z,99520.84
2023-03-23T23:59:42.181Z,99529.38
